Time;durP1;ratioP1;P1;durP2;ratioP2;P2;SDS_P1;SDS_P2;PMS_P1;PMS_P2;Temp;Humidity;BMP_temperature;BMP_pressure;BME280_temperature;BME280_humidity;BME280_pressure;Samples;Min_cycle;Max_cycle;Signal;HPM_P1;HPM_P2
2022/07/17 00:00:56;;;;;;;5.90;4.90;;;;;;;28.40;83.39;99752.75;5046698;28;20087;-81
2022/07/17 00:03:21;;;;;;;5.15;4.60;;;;;;;28.39;83.40;99753.03;5048735;28;20108;-83
2022/07/17 00:05:47;;;;;;;5.30;4.82;;;;;;;28.29;84.17;99761.03;5049264;28;20094;-82
2022/07/17 00:08:12;;;;;;;5.53;4.35;;;;;;;28.21;84.45;99753.38;5048695;28;20036;-82
2022/07/17 00:10:41;;;;;;;5.10;4.40;;;;;;;28.09;85.65;99758.88;5051993;28;20037;-83
2022/07/17 00:13:07;;;;;;;4.30;3.95;;;;;;;28.08;85.38;99758.06;5046351;28;20079;-81
2022/07/17 00:15:33;;;;;;;4.43;4.13;;;;;;;28.08;85.58;99758.06;5047162;28;20037;-81
2022/07/17 00:17:59;;;;;;;7.15;4.60;;;;;;;28.08;85.32;99763.50;5049317;28;20034;-81
2022/07/17 00:20:26;;;;;;;4.68;4.35;;;;;;;28.08;85.61;99760.78;5046922;28;20033;-80
2022/07/17 00:22:54;;;;;;;4.55;4.15;;;;;;;28.09;85.67;99765.13;5045894;28;20029;-80
2022/07/17 00:25:19;;;;;;;4.88;4.32;;;;;;;28.09;85.74;99758.88;5024195;28;20577;-80
2022/07/17 00:27:45;;;;;;;5.35;4.80;;;;;;;28.10;85.59;99766.75;5044551;28;20128;-80
2022/07/17 00:30:12;;;;;;;4.47;4.15;;;;;;;28.10;85.55;99765.94;5046504;28;20025;-82
2022/07/17 00:32:39;;;;;;;5.32;4.45;;;;;;;28.03;86.21;99766.13;5047929;28;20036;-81
2022/07/17 00:35:05;;;;;;;4.90;4.60;;;;;;;28.02;86.37;99769.91;5047320;28;20082;-81
2022/07/17 00:37:30;;;;;;;6.72;4.75;;;;;;;28.01;86.24;99768.28;5049567;28;20062;-80
2022/07/17 00:39:56;;;;;;;7.05;4.82;;;;;;;27.97;86.20;99772.56;5044293;28;20043;-79
2022/07/17 00:42:22;;;;;;;4.95;4.55;;;;;;;27.91;86.81;99773.56;5048417;28;20033;-81
2022/07/17 00:44:47;;;;;;;4.75;4.32;;;;;;;27.90;86.72;99788.19;5046714;28;20033;-81
2022/07/17 00:47:14;;;;;;;4.82;4.53;;;;;;;27.88;86.76;99774.06;5028292;28;20029;-81
2022/07/17 00:49:40;;;;;;;5.07;4.60;;;;;;;27.81;87.28;99776.13;5027777;28;20033;-86
2022/07/17 00:52:07;;;;;;;5.47;4.60;;;;;;;27.85;87.00;99774.56;5054591;28;20527;-82
2022/07/17 00:54:36;;;;;;;5.25;4.75;;;;;;;27.83;87.38;99771.28;5068078;28;20388;-81
2022/07/17 00:57:06;;;;;;;4.97;4.63;;;;;;;27.81;87.06;99773.41;5067870;28;20409;-81
2022/07/17 00:59:34;;;;;;;4.47;4.18;;;;;;;27.82;87.38;99768.81;5069838;28;20487;-81
2022/07/17 01:02:07;;;;;;;4.70;4.30;;;;;;;27.78;87.69;99773.91;5065167;28;20033;-82
2022/07/17 01:04:36;;;;;;;4.55;4.15;;;;;;;27.77;87.96;99766.84;5066989;28;20427;-82
2022/07/17 01:07:04;;;;;;;4.78;4.35;;;;;;;27.74;87.71;99772.78;5068477;28;20035;-82
2022/07/17 01:09:32;;;;;;;7.13;4.80;;;;;;;27.74;87.70;99777.38;5067766;28;20024;-83
2022/07/17 01:11:58;;;;;;;4.90;4.53;;;;;;;27.72;88.32;99769.50;5066259;28;20056;-84
2022/07/17 01:14:25;;;;;;;5.13;4.72;;;;;;;27.66;88.47;99770.50;5067098;28;20040;-83
2022/07/17 01:16:52;;;;;;;5.18;4.78;;;;;;;27.65;88.54;99780.50;5067332;28;20032;-82
2022/07/17 01:19:19;;;;;;;4.80;4.50;;;;;;;27.61;88.82;99773.94;5063323;28;20050;-84
2022/07/17 01:21:49;;;;;;;6.82;4.55;;;;;;;27.48;89.56;99778.84;5068255;28;20052;-85
2022/07/17 01:24:16;;;;;;;5.78;4.30;;;;;;;27.37;89.87;99782.47;5061519;28;20032;-83
2022/07/17 01:26:47;;;;;;;5.40;5.00;;;;;;;27.23;90.23;99782.78;5062861;28;20078;-85
2022/07/17 01:29:14;;;;;;;5.45;4.88;;;;;;;27.16;90.32;99787.53;5064515;28;20102;-85
2022/07/17 01:31:41;;;;;;;7.68;5.15;;;;;;;27.07;90.96;99789.03;5067518;28;20028;-84
2022/07/17 01:34:08;;;;;;;5.63;5.18;;;;;;;26.63;93.22;99789.78;5066945;28;20068;-87
2022/07/17 01:36:35;;;;;;;5.53;5.07;;;;;;;26.64;93.51;99784.13;5063082;28;20384;-84
2022/07/17 01:39:01;;;;;;;6.63;4.90;;;;;;;26.62;93.59;99790.88;5065964;28;20075;-84
2022/07/17 01:41:27;;;;;;;5.63;5.13;;;;;;;26.60;93.40;99793.00;5066270;28;20056;-84
2022/07/17 01:43:53;;;;;;;4.75;4.35;;;;;;;26.39;94.50;99792.56;5069467;28;20029;-84
2022/07/17 01:46:18;;;;;;;5.50;5.00;;;;;;;26.43;94.33;99792.94;5069540;28;20039;-82
2022/07/17 01:48:44;;;;;;;6.82;4.80;;;;;;;26.52;94.01;99790.66;5074469;28;20073;-84
2022/07/17 01:51:10;;;;;;;5.35;4.95;;;;;;;26.61;93.61;99794.63;5069676;28;20047;-84
2022/07/17 01:53:35;;;;;;;5.47;4.80;;;;;;;26.69;93.06;99796.94;5057931;28;20025;-85
2022/07/17 01:56:01;;;;;;;5.72;4.97;;;;;;;26.77;93.14;99793.84;5055432;28;20026;-84
2022/07/17 01:58:27;;;;;;;5.15;4.82;;;;;;;26.81;92.46;99805.84;5057762;28;20033;-81
2022/07/17 02:00:53;;;;;;;5.60;5.10;;;;;;;26.70;93.12;99804.00;5052615;28;20040;-82
2022/07/17 02:03:22;;;;;;;8.10;5.55;;;;;;;26.54;93.95;99816.41;5060140;28;20075;-86
2022/07/17 02:05:47;;;;;;;5.50;5.07;;;;;;;26.44;94.68;99811.63;5062485;28;20102;-86
2022/07/17 02:08:13;;;;;;;6.15;5.10;;;;;;;26.31;95.13;99803.78;5043395;28;20025;-87
2022/07/17 02:10:39;;;;;;;7.70;5.38;;;;;;;26.08;96.87;99812.75;5059882;28;20062;-85
2022/07/17 02:13:06;;;;;;;5.63;5.22;;;;;;;25.91;97.65;99816.41;5060638;28;20100;-87
2022/07/17 02:15:31;;;;;;;6.32;5.32;;;;;;;25.91;97.83;99821.81;5061150;28;20028;-85
2022/07/17 02:17:57;;;;;;;6.05;5.63;;;;;;;26.02;97.17;99831.78;5057354;28;20033;-85
2022/07/17 02:20:24;;;;;;;4.95;4.55;;;;;;;26.09;97.12;99835.19;5058546;28;20040;-85
2022/07/17 02:22:50;;;;;;;6.10;5.20;;;;;;;26.17;96.98;99834.00;5057377;28;20037;-85
2022/07/17 02:25:15;;;;;;;6.00;5.38;;;;;;;26.18;96.88;99822.13;5057255;28;20051;-85
2022/07/17 02:27:42;;;;;;;6.20;5.55;;;;;;;26.19;97.44;99832.72;5056437;28;20033;-84
2022/07/17 02:30:11;;;;;;;5.72;5.30;;;;;;;26.22;96.97;99848.44;5056864;28;20033;-84
2022/07/17 02:32:37;;;;;;;5.73;5.17;;;;;;;26.23;97.16;99858.25;5061846;28;20239;-85
2022/07/17 02:35:06;;;;;;;5.95;5.45;;;;;;;26.15;97.69;99849.66;5059521;28;20033;-86
2022/07/17 02:37:33;;;;;;;6.83;6.10;;;;;;;26.17;97.51;99851.03;5058585;28;20043;-83
2022/07/17 02:39:58;;;;;;;5.95;5.38;;;;;;;26.19;97.11;99857.06;5054132;28;20036;-81
2022/07/17 02:42:27;;;;;;;5.47;4.93;;;;;;;26.17;96.17;99859.16;5054597;28;20029;-83
2022/07/17 02:44:53;;;;;;;9.05;5.05;;;;;;;26.19;96.25;99862.47;5050359;28;20041;-82
2022/07/17 02:47:24;;;;;;;5.70;5.15;;;;;;;26.23;95.40;99863.66;5049192;28;20055;-81
2022/07/17 02:49:50;;;;;;;;;;;;;;;26.21;94.65;99864.94;5051886;28;20142;-83
2022/07/17 02:52:15;;;;;;;5.70;4.47;;;;;;;26.24;93.90;99870.72;5049152;28;20330;-84
2022/07/17 02:54:41;;;;;;;5.63;5.05;;;;;;;26.31;93.47;99865.19;5051599;28;20029;-83
2022/07/17 02:57:07;;;;;;;5.18;4.65;;;;;;;26.29;93.13;99868.13;5056243;28;20025;-83
2022/07/17 02:59:32;;;;;;;5.55;4.97;;;;;;;26.33;92.96;99869.28;5060580;28;20029;-84
2022/07/17 03:01:58;;;;;;;6.90;4.75;;;;;;;26.34;92.57;99870.94;5054464;28;20032;-82
2022/07/17 03:04:24;;;;;;;5.13;4.82;;;;;;;26.36;92.26;99876.13;5047889;28;20029;-80
2022/07/17 03:06:49;;;;;;;5.22;4.80;;;;;;;26.34;92.42;99876.34;5052223;28;20037;-81
2022/07/17 03:09:15;;;;;;;5.93;4.90;;;;;;;26.28;92.50;99874.59;5051299;28;20025;-80
2022/07/17 03:11:41;;;;;;;5.70;4.93;;;;;;;26.27;92.16;99875.63;5044862;28;20029;-79
2022/07/17 03:14:06;;;;;;;5.80;4.60;;;;;;;26.32;91.78;99877.66;5048888;28;20131;-83
2022/07/17 03:16:32;;;;;;;5.72;4.68;;;;;;;26.33;91.83;99882.81;5058058;28;20021;-83
2022/07/17 03:18:58;;;;;;;5.00;4.60;;;;;;;26.33;91.90;99874.69;5054335;28;20079;-82
2022/07/17 03:21:23;;;;;;;5.55;5.00;;;;;;;26.28;91.70;99877.28;5048894;28;20033;-85
2022/07/17 03:23:49;;;;;;;5.55;5.05;;;;;;;26.25;91.94;99883.19;5054535;28;20124;-84
2022/07/17 03:26:15;;;;;;;5.90;4.68;;;;;;;26.23;92.24;99882.59;5051836;28;20038;-83
2022/07/17 03:28:40;;;;;;;5.53;5.00;;;;;;;26.20;92.43;99877.63;5031776;28;20029;-82
2022/07/17 03:31:06;;;;;;;7.05;4.70;;;;;;;26.24;92.52;99881.53;5052324;28;20043;-83
2022/07/17 03:33:31;;;;;;;5.10;4.70;;;;;;;26.27;91.81;99881.03;5050835;28;20063;-81
2022/07/17 03:35:58;;;;;;;8.30;4.70;;;;;;;26.33;92.08;99890.91;5054674;28;20033;-84
2022/07/17 03:38:24;;;;;;;4.82;4.53;;;;;;;26.35;92.16;99888.00;5051547;28;20432;-80
2022/07/17 03:40:49;;;;;;;4.88;4.47;;;;;;;26.42;91.58;99888.69;5054298;28;20037;-86
2022/07/17 03:43:15;;;;;;;5.43;4.95;;;;;;;26.44;92.06;99894.69;5049659;28;20032;-84
2022/07/17 03:45:41;;;;;;;6.30;4.72;;;;;;;26.48;91.63;99895.84;5052319;28;20040;-84
2022/07/17 03:48:07;;;;;;;5.07;4.65;;;;;;;26.42;91.95;99894.09;5052996;28;20446;-84
2022/07/17 03:50:33;;;;;;;5.93;5.18;;;;;;;26.41;91.67;99900.56;5049312;28;20053;-83
2022/07/17 03:52:59;;;;;;;6.13;5.60;;;;;;;26.14;94.41;99902.09;5055788;28;20037;-86
2022/07/17 03:55:24;;;;;;;6.55;5.40;;;;;;;25.91;96.48;99897.50;5058263;28;20037;-85
2022/07/17 03:57:50;;;;;;;6.00;5.50;;;;;;;25.93;96.40;99906.19;5058280;28;20037;-87
2022/07/17 04:00:18;;;;;;;6.05;5.32;;;;;;;25.80;97.72;99906.44;5053674;28;20032;-88
2022/07/17 04:02:43;;;;;;;5.88;5.47;;;;;;;25.77;98.22;99912.28;5056108;28;20116;-86
2022/07/17 04:05:09;;;;;;;6.97;5.55;;;;;;;25.82;97.79;99912.41;5062472;28;20039;-87
2022/07/17 04:07:39;;;;;;;6.30;5.70;;;;;;;25.76;98.77;99905.22;5064472;28;20074;-87
2022/07/17 04:10:07;;;;;;;6.22;5.72;;;;;;;25.61;99.61;99903.81;5045328;28;20393;-87
2022/07/17 04:12:33;;;;;;;5.47;5.07;;;;;;;25.66;99.44;99912.03;5061337;28;20032;-85
2022/07/17 04:14:58;;;;;;;6.15;5.55;;;;;;;25.78;99.17;99913.94;5057631;28;20033;-85
2022/07/17 04:17:24;;;;;;;6.07;5.57;;;;;;;25.74;99.76;99915.47;5053264;28;20176;-85
2022/07/17 04:19:50;;;;;;;5.70;5.30;;;;;;;25.59;100.00;99914.03;5037330;28;20116;-86
2022/07/17 04:22:16;;;;;;;6.78;5.63;;;;;;;25.59;100.00;99919.44;5058068;28;20037;-86
2022/07/17 04:24:42;;;;;;;6.32;5.60;;;;;;;25.54;100.00;99913.03;5048144;28;20089;-87
2022/07/17 04:27:08;;;;;;;6.43;5.97;;;;;;;25.33;100.00;99922.47;5059694;28;20100;-87
2022/07/17 04:29:34;;;;;;;7.85;5.85;;;;;;;25.14;100.00;99923.59;5045054;28;20470;-86
2022/07/17 04:32:00;;;;;;;6.82;6.20;;;;;;;25.10;100.00;99927.78;5048559;28;20029;-83
2022/07/17 04:34:26;;;;;;;6.22;5.80;;;;;;;25.04;100.00;99929.53;5049750;28;20038;-85
2022/07/17 04:36:52;;;;;;;6.55;5.95;;;;;;;24.94;100.00;99929.25;5033906;28;20048;-86
2022/07/17 04:39:18;;;;;;;6.32;5.85;;;;;;;24.95;100.00;99935.47;5044212;28;20040;-85
2022/07/17 04:41:43;;;;;;;8.00;7.13;;;;;;;25.09;100.00;99936.97;5050255;28;20104;-84
2022/07/17 04:44:09;;;;;;;7.05;6.45;;;;;;;24.93;100.00;99945.66;5050977;28;20036;-87
2022/07/17 04:46:35;;;;;;;11.93;6.90;;;;;;;24.81;100.00;99941.00;5047042;28;20112;-85
2022/07/17 04:49:00;;;;;;;6.85;6.25;;;;;;;24.86;100.00;99938.44;5048477;28;20037;-85
2022/07/17 04:51:26;;;;;;;6.70;6.10;;;;;;;24.94;100.00;99950.00;5047594;28;20037;-83
2022/07/17 04:53:52;;;;;;;6.57;5.97;;;;;;;25.00;100.00;99949.94;5031504;28;20061;-84
2022/07/17 04:56:17;;;;;;;9.57;6.35;;;;;;;25.00;100.00;99949.09;5044841;28;20067;-81
2022/07/17 04:58:43;;;;;;;6.40;5.82;;;;;;;25.12;100.00;99947.28;5030129;28;20132;-82
2022/07/17 05:01:08;;;;;;;6.60;6.10;;;;;;;25.15;100.00;99957.66;5028167;28;20064;-82
2022/07/17 05:03:34;;;;;;;6.35;5.85;;;;;;;24.96;100.00;99964.13;5044968;28;20024;-82
2022/07/17 05:05:59;;;;;;;6.88;6.18;;;;;;;24.90;100.00;99965.03;5049998;28;20094;-85
2022/07/17 05:08:25;;;;;;;6.63;6.00;;;;;;;25.04;100.00;99966.50;5050063;28;20029;-85
2022/07/17 05:10:50;;;;;;;5.90;5.50;;;;;;;25.04;100.00;99970.03;5008631;28;20520;-85
2022/07/17 05:13:16;;;;;;;6.70;5.72;;;;;;;25.18;100.00;99978.78;5047438;28;20048;-83
2022/07/17 05:15:41;;;;;;;6.80;5.57;;;;;;;25.33;100.00;99976.50;5049217;28;20347;-83
2022/07/17 05:18:08;;;;;;;6.60;5.97;;;;;;;25.43;100.00;99976.81;5046176;28;20036;-83
2022/07/17 05:20:34;;;;;;;5.72;5.22;;;;;;;25.49;100.00;99983.16;5047960;28;20026;-83
2022/07/17 05:22:59;;;;;;;5.68;5.10;;;;;;;25.58;100.00;99998.84;5046828;28;20040;-83
2022/07/17 05:25:25;;;;;;;6.03;5.63;;;;;;;25.65;100.00;99990.66;5042554;28;20307;-83
2022/07/17 05:27:51;;;;;;;6.45;5.90;;;;;;;25.71;100.00;100002.41;5045987;28;20371;-83
2022/07/17 05:30:17;;;;;;;7.15;5.97;;;;;;;25.76;100.00;99997.13;5025897;28;20045;-84
2022/07/17 05:32:42;;;;;;;6.78;5.35;;;;;;;25.81;100.00;99997.25;5048421;28;20037;-83
2022/07/17 05:35:08;;;;;;;6.97;6.28;;;;;;;25.90;100.00;99998.59;5044649;28;20021;-83
2022/07/17 05:37:34;;;;;;;7.68;5.22;;;;;;;25.95;100.00;100002.25;5025982;28;20036;-82
2022/07/17 05:39:59;;;;;;;7.72;5.22;;;;;;;25.96;100.00;100013.91;5043753;28;20040;-82
2022/07/17 05:42:25;;;;;;;5.75;5.28;;;;;;;25.99;100.00;100013.41;5048030;28;20106;-84
2022/07/17 05:44:50;;;;;;;5.57;5.05;;;;;;;26.02;100.00;100012.97;5023681;28;20028;-82
2022/07/17 05:47:16;;;;;;;5.53;5.13;;;;;;;26.05;100.00;100009.78;5046284;28;20039;-83
2022/07/17 05:49:42;;;;;;;6.00;5.30;;;;;;;26.10;100.00;100009.91;5041474;28;20059;-82
2022/07/17 05:52:07;;;;;;;5.70;5.20;;;;;;;26.18;100.00;100017.69;5039752;28;20090;-83
2022/07/17 05:54:34;;;;;;;7.25;5.13;;;;;;;26.24;99.83;100015.97;5023278;28;20040;-83
2022/07/17 05:57:01;;;;;;;6.43;5.55;;;;;;;26.29;99.74;100011.50;5046449;28;20485;-84
2022/07/17 05:59:26;;;;;;;5.95;5.55;;;;;;;26.37;99.35;100022.00;5046178;28;20147;-85
2022/07/17 06:01:52;;;;;;;6.32;5.72;;;;;;;26.39;99.42;100014.44;5044919;28;20083;-85
2022/07/17 06:04:18;;;;;;;6.15;5.65;;;;;;;26.43;99.79;100018.34;5044761;28;20029;-85
2022/07/17 06:06:45;;;;;;;6.28;5.78;;;;;;;26.52;99.90;100023.38;5046491;28;20025;-84
2022/07/17 06:09:10;;;;;;;7.28;6.68;;;;;;;26.59;100.00;100024.94;5025530;28;20438;-84
2022/07/17 06:11:36;;;;;;;8.25;6.55;;;;;;;26.65;100.00;100034.00;5045147;28;20037;-83
2022/07/17 06:14:01;;;;;;;8.00;6.28;;;;;;;26.69;100.00;100029.75;5045931;28;20030;-82
2022/07/17 06:16:27;;;;;;;8.55;7.53;;;;;;;26.70;100.00;100039.50;5048938;28;20033;-84
2022/07/17 06:18:53;;;;;;;7.55;6.95;;;;;;;26.71;100.00;100033.03;5046440;28;20033;-85
2022/07/17 06:21:18;;;;;;;6.82;6.32;;;;;;;26.75;100.00;100039.63;5048246;28;20112;-83
2022/07/17 06:23:44;;;;;;;8.25;7.50;;;;;;;26.82;100.00;100040.34;5054306;28;20045;-85
2022/07/17 06:26:10;;;;;;;9.15;8.25;;;;;;;26.81;100.00;100044.09;5066906;28;20013;-85
2022/07/17 06:28:35;;;;;;;8.25;7.13;;;;;;;26.81;100.00;100050.34;5063242;28;20032;-84
2022/07/17 06:31:01;;;;;;;9.13;8.27;;;;;;;26.87;100.00;100048.56;5054322;28;20033;-84
2022/07/17 06:33:26;;;;;;;9.50;8.52;;;;;;;26.91;100.00;100060.63;5052498;28;20121;-84
2022/07/17 06:35:52;;;;;;;10.23;9.20;;;;;;;26.94;100.00;100054.72;5045993;28;20131;-83
2022/07/17 06:38:17;;;;;;;13.00;11.65;;;;;;;26.94;99.45;100054.72;5044490;28;20096;-83
2022/07/17 06:40:43;;;;;;;11.50;10.30;;;;;;;26.89;98.76;100057.31;5047581;28;20033;-82
2022/07/17 06:43:10;;;;;;;11.27;10.18;;;;;;;26.89;99.33;100051.91;5045282;28;20121;-83
2022/07/17 06:45:36;;;;;;;16.85;15.02;;;;;;;26.87;97.75;100051.28;5048155;28;20102;-85
2022/07/17 06:48:02;;;;;;;14.93;13.20;;;;;;;26.90;97.73;100053.56;5046304;28;20044;-83
2022/07/17 06:50:27;;;;;;;15.30;13.73;;;;;;;26.92;97.02;100051.41;5023437;28;20048;-85
2022/07/17 06:52:53;;;;;;;15.20;13.68;;;;;;;26.94;96.61;100054.72;5036003;28;20083;-83
2022/07/17 06:55:19;;;;;;;17.38;14.48;;;;;;;26.98;96.43;100055.09;5037880;28;20129;-82
2022/07/17 06:57:44;;;;;;;14.75;13.25;;;;;;;27.04;96.03;100060.34;5034518;28;20032;-82
2022/07/17 07:00:10;;;;;;;16.20;14.57;;;;;;;27.09;94.58;100063.19;5043904;28;20090;-85
2022/07/17 07:02:37;;;;;;;16.45;12.82;;;;;;;27.16;94.44;100066.56;5044165;28;20067;-81
2022/07/17 07:05:04;;;;;;;14.57;13.07;;;;;;;27.19;93.20;100068.00;5043833;28;20393;-82
2022/07/17 07:07:30;;;;;;;14.63;13.38;;;;;;;27.22;92.74;100065.63;5040483;28;20370;-81
2022/07/17 07:09:56;;;;;;;14.65;13.13;;;;;;;27.28;91.82;100063.84;5026034;28;20514;-82
2022/07/17 07:12:21;;;;;;;13.82;12.43;;;;;;;27.28;91.10;100067.38;5048125;28;20025;-84
2022/07/17 07:14:47;;;;;;;13.98;12.55;;;;;;;27.27;91.61;100073.84;5054048;28;20037;-82
2022/07/17 07:17:12;;;;;;;12.50;11.30;;;;;;;27.33;91.33;100079.41;5050813;28;20095;-82
2022/07/17 07:19:38;;;;;;;12.32;11.32;;;;;;;27.41;90.39;100085.25;5052356;28;20092;-80
2022/07/17 07:22:04;;;;;;;13.35;12.05;;;;;;;27.46;90.46;100084.53;5052352;28;20068;-78
2022/07/17 07:24:30;;;;;;;14.00;12.45;;;;;;;27.50;89.82;100086.53;5049192;28;20052;-78
2022/07/17 07:26:56;;;;;;;13.55;12.18;;;;;;;27.53;88.96;100086.09;5047576;28;20060;-73
2022/07/17 07:29:21;;;;;;;15.45;12.43;;;;;;;27.58;88.49;100090.78;5046894;28;20155;-78
2022/07/17 07:31:47;;;;;;;15.02;12.50;;;;;;;27.65;88.30;100083.34;5043107;28;20049;-78
2022/07/17 07:34:14;;;;;;;14.02;11.27;;;;;;;27.67;88.53;100082.03;5043857;28;20082;-80
2022/07/17 07:36:40;;;;;;;13.98;12.63;;;;;;;27.77;88.14;100089.53;5048334;28;20783;-81
2022/07/17 07:39:05;;;;;;;12.75;11.63;;;;;;;27.84;87.27;100092.09;5047314;28;20033;-88
2022/07/17 07:41:31;;;;;;;13.10;11.77;;;;;;;27.91;87.26;100099.03;5045195;28;20036;-77
2022/07/17 07:43:57;;;;;;;13.85;12.40;;;;;;;27.95;86.87;100100.19;5042950;28;20040;-76
2022/07/17 07:46:22;;;;;;;14.85;13.45;;;;;;;28.00;85.87;100107.59;5048616;28;20033;-77
2022/07/17 07:48:48;;;;;;;16.63;13.73;;;;;;;27.97;85.60;100108.91;5050254;28;20037;-75
2022/07/17 07:51:13;;;;;;;13.65;12.32;;;;;;;28.10;85.52;100103.16;5043083;28;20037;-77
2022/07/17 07:53:39;;;;;;;14.00;12.63;;;;;;;28.16;84.90;100111.47;5021730;28;20130;-78
2022/07/17 07:56:05;;;;;;;13.35;12.02;;;;;;;28.24;85.08;100108.34;5042388;28;20102;-78
2022/07/17 07:58:31;;;;;;;14.57;12.25;;;;;;;28.26;84.55;100101.59;5043741;28;20044;-78
2022/07/17 08:00:56;;;;;;;13.60;12.50;;;;;;;28.28;84.32;100109.47;5043980;28;20041;-77
2022/07/17 08:03:22;;;;;;;12.23;10.98;;;;;;;28.29;84.40;100105.69;5027157;28;20029;-78
2022/07/17 08:05:47;;;;;;;11.43;10.43;;;;;;;28.34;84.57;100103.06;5026392;28;20044;-78
2022/07/17 08:08:13;;;;;;;12.32;11.27;;;;;;;28.43;84.19;100098.91;5040764;28;20076;-77
2022/07/17 08:10:38;;;;;;;13.50;12.23;;;;;;;28.47;84.15;100100.88;5047407;28;20021;-78
2022/07/17 08:13:04;;;;;;;14.57;13.35;;;;;;;28.49;83.82;100108.78;5046157;28;20489;-78
2022/07/17 08:15:30;;;;;;;14.35;11.88;;;;;;;28.48;83.86;100109.84;5031403;28;20586;-77
2022/07/17 08:17:56;;;;;;;13.18;11.77;;;;;;;28.49;83.72;100108.78;5045040;28;20033;-76
2022/07/17 08:20:22;;;;;;;14.48;11.93;;;;;;;28.51;83.91;100117.50;5022554;28;20069;-77
2022/07/17 08:22:49;;;;;;;11.60;10.45;;;;;;;28.56;83.52;100120.31;5047565;28;20390;-77
2022/07/17 08:25:14;;;;;;;12.43;11.23;;;;;;;28.63;82.89;100118.22;5041687;28;20103;-77
2022/07/17 08:27:42;;;;;;;11.15;10.05;;;;;;;28.69;83.00;100121.84;5046512;28;20025;-77
2022/07/17 08:30:10;;;;;;;10.32;9.23;;;;;;;28.74;81.64;100130.94;5042022;28;20029;-78
2022/07/17 08:32:37;;;;;;;11.38;10.48;;;;;;;28.81;81.89;100128.03;5039481;28;20363;-77
2022/07/17 08:35:03;;;;;;;11.35;10.45;;;;;;;28.84;81.58;100125.66;5046450;28;20619;-77
2022/07/17 08:37:29;;;;;;;12.27;11.18;;;;;;;28.87;81.45;100125.16;5046280;28;20041;-77
2022/07/17 08:39:56;;;;;;;11.60;9.63;;;;;;;28.92;81.33;100122.50;5045433;28;20045;-76
2022/07/17 08:42:22;;;;;;;8.63;7.88;;;;;;;29.00;80.04;100128.59;5046769;28;20033;-78
2022/07/17 08:44:48;;;;;;;11.52;10.43;;;;;;;29.05;79.28;100125.94;5045315;28;20471;-78
2022/07/17 08:47:15;;;;;;;13.45;10.60;;;;;;;29.09;79.25;100127.13;5044961;28;20112;-77
2022/07/17 08:49:48;;;;;;;12.98;9.20;;;;;;;29.14;78.94;100133.44;5044292;28;20104;-76
2022/07/17 08:52:14;;;;;;;12.18;10.77;;;;;;;29.13;78.76;100129.06;5043436;28;20059;-78
2022/07/17 08:54:40;;;;;;;8.50;7.80;;;;;;;29.18;79.18;100125.59;5045813;28;20116;-76
2022/07/17 08:57:06;;;;;;;10.25;9.27;;;;;;;29.23;78.52;100128.38;5043067;28;20029;-77
2022/07/17 08:59:32;;;;;;;10.93;9.95;;;;;;;29.24;77.45;100135.47;5027210;28;20059;-77
2022/07/17 09:02:00;;;;;;;12.30;9.07;;;;;;;29.25;77.14;100135.22;5049495;28;20029;-77
2022/07/17 09:04:27;;;;;;;10.35;9.35;;;;;;;29.28;76.48;100136.59;5030528;28;20082;-78
2022/07/17 09:07:04;;;;;;;9.15;8.32;;;;;;;29.29;76.23;100138.25;5046311;28;20032;-77
2022/07/17 09:09:30;;;;;;;9.63;7.85;;;;;;;29.28;75.85;100136.59;5029472;28;20385;-77
2022/07/17 09:11:58;;;;;;;8.05;7.20;;;;;;;29.31;75.66;100141.56;5046860;28;20029;-78
2022/07/17 09:14:35;;;;;;;8.70;7.40;;;;;;;29.33;74.54;100139.44;5047583;28;20166;-78
2022/07/17 09:17:03;;;;;;;7.90;6.97;;;;;;;29.38;73.87;100142.25;5047292;28;20385;-78
2022/07/17 09:19:31;;;;;;;7.25;6.65;;;;;;;29.46;73.69;100149.94;5048181;28;20037;-77
2022/07/17 09:22:10;;;;;;;9.05;7.22;;;;;;;29.51;73.80;100147.28;5049298;28;20068;-78
2022/07/17 09:24:45;;;;;;;7.40;6.65;;;;;;;29.56;73.55;100149.28;5048748;28;20033;-78
2022/07/17 09:27:13;;;;;;;11.75;7.63;;;;;;;29.59;72.11;100157.72;5049304;28;20024;-77
2022/07/17 09:30:06;;;;;;;6.32;5.82;;;;;;;29.64;71.10;100157.78;5044759;28;20036;-78
2022/07/17 09:32:37;;;;;;;8.20;6.40;;;;;;;29.69;70.09;100160.56;5033225;28;20470;-77
2022/07/17 09:35:06;;;;;;;8.55;6.38;;;;;;;29.73;69.80;100160.06;5046296;28;20033;-78
2022/07/17 09:37:33;;;;;;;6.18;5.32;;;;;;;29.78;69.50;100160.97;5053504;28;20401;-77
2022/07/17 09:40:01;;;;;;;5.57;5.07;;;;;;;29.84;68.53;100159.13;5050910;28;20080;-77
2022/07/17 09:42:29;;;;;;;8.25;5.18;;;;;;;29.92;68.96;100169.59;5051949;28;20064;-78
2022/07/17 09:45:03;;;;;;;5.20;4.70;;;;;;;29.92;66.27;100161.44;5049406;28;20037;-78
2022/07/17 09:47:30;;;;;;;5.32;4.65;;;;;;;29.91;65.72;100162.50;5048837;28;20029;-77
2022/07/17 09:49:58;;;;;;;6.00;5.30;;;;;;;29.91;64.86;100167.94;5047325;28;20087;-78
2022/07/17 09:52:26;;;;;;;6.63;4.75;;;;;;;29.92;64.26;100164.16;5047420;28;20072;-77
2022/07/17 09:54:54;;;;;;;9.98;6.05;;;;;;;29.94;63.50;100164.69;5045296;28;20063;-77
2022/07/17 09:57:24;;;;;;;4.60;4.20;;;;;;;29.98;63.60;100165.84;5042798;28;20389;-78
2022/07/17 09:59:52;;;;;;;4.70;3.95;;;;;;;30.03;63.12;100160.47;5052521;28;20329;-78
2022/07/17 10:02:19;;;;;;;4.18;3.88;;;;;;;30.06;62.32;100176.28;5030427;28;20136;-77
2022/07/17 10:04:46;;;;;;;4.75;4.28;;;;;;;30.11;62.25;100168.97;5031480;28;20100;-78
2022/07/17 10:07:12;;;;;;;4.82;4.00;;;;;;;30.15;61.96;100169.31;5047548;28;20100;-77
2022/07/17 10:09:38;;;;;;;4.43;3.90;;;;;;;30.18;60.68;100168.78;5048227;28;20075;-78
2022/07/17 10:12:06;;;;;;;7.55;3.72;;;;;;;30.13;59.97;100166.00;5046940;28;20408;-77
2022/07/17 10:14:32;;;;;;;4.90;3.85;;;;;;;30.13;60.57;100168.72;5049706;28;20033;-77
2022/07/17 10:17:12;;;;;;;4.20;3.90;;;;;;;30.13;61.43;100166.00;5032478;28;20040;-77
2022/07/17 10:19:50;;;;;;;4.72;4.30;;;;;;;30.12;61.92;100161.63;5048506;28;20048;-77
2022/07/17 10:22:16;;;;;;;5.10;4.25;;;;;;;30.16;61.76;100164.69;5044315;28;20049;-77
2022/07/17 10:25:03;;;;;;;4.60;4.25;;;;;;;30.20;63.04;100168.53;5046297;28;20036;-77
2022/07/17 10:27:30;;;;;;;6.32;3.88;;;;;;;30.20;62.72;100168.53;5048248;28;20112;-76
2022/07/17 10:30:05;;;;;;;5.75;3.90;;;;;;;30.24;63.41;100156.03;5044563;28;20037;-78
2022/07/17 10:32:32;;;;;;;3.97;3.65;;;;;;;30.24;64.00;100162.31;5041431;28;20499;-77
2022/07/17 10:35:05;;;;;;;5.15;4.60;;;;;;;30.29;64.07;100159.63;5044978;28;20033;-77
2022/07/17 10:37:36;;;;;;;4.90;4.50;;;;;;;30.28;64.10;100160.72;5031062;28;20029;-76
2022/07/17 10:40:04;;;;;;;5.07;3.90;;;;;;;30.27;65.01;100161.00;5048784;28;20432;-77
2022/07/17 10:42:52;;;;;;;4.70;4.25;;;;;;;30.26;65.79;100160.16;5046864;28;20036;-77
2022/07/17 10:45:18;;;;;;;7.07;4.03;;;;;;;30.24;67.08;100162.31;5042673;28;20041;-77
2022/07/17 10:47:45;;;;;;;6.07;4.18;;;;;;;30.26;67.09;100156.63;5045165;28;20025;-77
2022/07/17 10:50:12;;;;;;;4.20;3.90;;;;;;;30.26;67.24;100160.16;5043039;28;20035;-77
2022/07/17 10:52:38;;;;;;;4.20;3.80;;;;;;;30.33;67.95;100160.78;5047592;28;20452;-78
2022/07/17 10:55:16;;;;;;;4.40;4.00;;;;;;;30.35;68.55;100158.59;5042991;28;20057;-79
2022/07/17 10:57:42;;;;;;;4.63;4.20;;;;;;;30.37;67.91;100167.34;5041013;28;20386;-78
2022/07/17 11:00:10;;;;;;;10.57;4.50;;;;;;;30.32;68.84;100158.31;5021425;28;20342;-79
2022/07/17 11:02:36;;;;;;;4.95;4.55;;;;;;;30.30;69.09;100155.03;5046397;28;20096;-78
2022/07/17 11:05:13;;;;;;;3.95;3.55;;;;;;;30.37;69.50;100163.81;5045899;28;20025;-78
2022/07/17 11:07:59;;;;;;;6.45;4.50;;;;;;;30.33;68.82;100160.78;5048685;28;20041;-78
2022/07/17 11:10:27;;;;;;;4.65;4.20;;;;;;;30.34;68.93;100156.97;5027055;28;20363;-78
2022/07/17 11:12:54;;;;;;;4.93;4.00;;;;;;;30.36;68.75;100157.53;5043484;28;20069;-77
2022/07/17 11:15:21;;;;;;;8.77;4.43;;;;;;;30.42;68.69;100152.97;5045968;28;20033;-77
2022/07/17 11:17:49;;;;;;;5.10;4.47;;;;;;;30.49;69.16;100154.44;5048067;28;20033;-78
2022/07/17 11:20:16;;;;;;;5.20;4.00;;;;;;;30.56;66.73;100142.50;5041592;28;20119;-78
2022/07/17 11:22:42;;;;;;;4.55;3.85;;;;;;;30.58;66.70;100151.22;5045412;28;20715;-79